UUOB Airport Information

Runway Information
Runway 11 Length 7546 ft width 138 ft
Elevation 735 ft Threshold 0 ft Heading 117
Runway 29 Length 7546 ft Width 138 ft
Elevation 702 ft Threshold 0 ft Heading 297
Runway 12 Length 7930 ft width 220 ft
Elevation 0 ft Threshold 0 ft Heading 117
Runway 30 Length 7930 ft Width 220 ft
Elevation 0 ft Threshold 0 ft Heading 297
Airport Frequencies
Type APP Name APP Frequency 133 MHZ
Type GND Name TAXIING Frequency 121.7 MHZ
Type TWR Name TWR Frequency 118.2 MHZ
Airport Navaids
Type NDB Name Belgorod Frequency 718 KHZ
Type NDB Name Belgorod Frequency 718 KHZ
Airport Weather Information & NOTAM
ADDS - METARS form results

(1744 UTC 17 August 2019)
Data provider http://aviationweather.gov/metar/data/
 
METAR text: UUOB 171730Z 34002MPS CAVOK 18/16 Q1009 R29/010060 NOSIG
Conditions at: UUOB (BELGOROD , RU) observed 1730 UTC 17 August 2019
Temperature: 18.0°C (64°F)
Dewpoint: 16.0°C (61°F) [RH = 88%]
Pressure (altimeter): 29.79 inches Hg (1009.0 mb)
Winds: from the NNW (340 degrees) at 5 MPH (4 knots; 2.1 m/s)
Visibility: 6 or more miles (10+ km)
Ceiling: ceiling and visibility are OK
Clouds: unknown
Weather: no significant weather observed at this time

METAR text: UUOB 171700Z 32003MPS CAVOK 18/16 Q1009 R29/010060 NOSIG
Conditions at: UUOB (BELGOROD , RU) observed 1700 UTC 17 August 2019
Temperature: 18.0°C (64°F)
Dewpoint: 16.0°C (61°F) [RH = 88%]
Pressure (altimeter): 29.79 inches Hg (1009.0 mb)
Winds: from the NW (320 degrees) at 7 MPH (6 knots; 3.1 m/s)
Visibility: 6 or more miles (10+ km)
Ceiling: ceiling and visibility are OK
Clouds: unknown
Weather: no significant weather observed at this time

Forecast for: UUOB (BELGOROD , RU)
Text: TAF UUOB 171700Z 1718/1803 30003MPS 9999 BKN020
Forecast period: 1800 UTC 17 August 2019 to 0300 UTC 18 August 2019
Forecast type: FROM: standard forecast or significant change
Winds: from the WNW (300 degrees) at 7 MPH (6 knots; 3.1 m/s)
Visibility: 6 or more miles 10+ km)
Ceiling: 2000 feet AGL
Clouds: broken clouds at 2000 feet AGL
Weather: no significant weather forecast for this period
Text: TEMPO 1718/1721 4000 -SHRA BR BKN020CB
Forecast period: 1800 to 2100 UTC 17 August 2019
Forecast type: TEMPORARY: The following changes expected for less than half the time period
Visibility: 2.49 miles (4.01 km)
Ceiling: 2000 feet AGL
Clouds: broken clouds at 2000 feet AGL
Weather: -SHRA BR  (light rain showers, mist)
Text: TEMPO 1721/1803 3100 BR BKN005
Forecast period: 2100 UTC 17 August 2019 to 0300 UTC 18 August 2019
Forecast type: TEMPORARY: The following changes expected for less than half the time period
Visibility: 1.93 miles (3.11 km)
Ceiling: 500 feet AGL
Clouds: broken clouds at 500 feet AGL
Weather: BR  (mist)